sensor_id;sensor_type;location;lat;lon;timestamp;P1;durP1;ratioP1;P2;durP2;ratioP2
78581;SDS011;67878;46.242;5.974;2023-04-24T00:00:09;1.70;;;1.23;;
78581;SDS011;67878;46.242;5.974;2023-04-24T00:02:36;1.45;;;1.30;;
78581;SDS011;67878;46.242;5.974;2023-04-24T00:05:04;1.42;;;1.33;;
78581;SDS011;67878;46.242;5.974;2023-04-24T00:07:30;1.58;;;1.15;;
78581;SDS011;67878;46.242;5.974;2023-04-24T00:09:56;1.35;;;1.17;;
78581;SDS011;67878;46.242;5.974;2023-04-24T00:12:22;1.27;;;1.17;;
78581;SDS011;67878;46.242;5.974;2023-04-24T00:14:47;1.27;;;1.13;;
78581;SDS011;67878;46.242;5.974;2023-04-24T00:17:13;1.75;;;1.35;;
78581;SDS011;67878;46.242;5.974;2023-04-24T00:19:39;1.92;;;1.20;;
78581;SDS011;67878;46.242;5.974;2023-04-24T00:22:04;1.17;;;1.08;;
78581;SDS011;67878;46.242;5.974;2023-04-24T00:24:30;1.40;;;1.30;;
78581;SDS011;67878;46.242;5.974;2023-04-24T00:26:56;1.70;;;1.50;;
78581;SDS011;67878;46.242;5.974;2023-04-24T00:29:22;1.30;;;1.20;;
78581;SDS011;67878;46.242;5.974;2023-04-24T00:31:48;1.58;;;1.05;;
78581;SDS011;67878;46.242;5.974;2023-04-24T00:34:14;1.33;;;1.23;;
78581;SDS011;67878;46.242;5.974;2023-04-24T00:36:39;1.50;;;1.30;;
78581;SDS011;67878;46.242;5.974;2023-04-24T00:39:05;1.30;;;1.20;;
78581;SDS011;67878;46.242;5.974;2023-04-24T00:41:33;2.35;;;1.08;;
78581;SDS011;67878;46.242;5.974;2023-04-24T00:43:59;1.30;;;1.20;;
78581;SDS011;67878;46.242;5.974;2023-04-24T00:46:25;1.20;;;1.10;;
78581;SDS011;67878;46.242;5.974;2023-04-24T00:48:50;1.40;;;1.10;;
78581;SDS011;67878;46.242;5.974;2023-04-24T00:51:16;1.17;;;1.08;;
78581;SDS011;67878;46.242;5.974;2023-04-24T00:53:41;1.75;;;1.20;;
78581;SDS011;67878;46.242;5.974;2023-04-24T00:56:07;1.20;;;1.10;;
78581;SDS011;67878;46.242;5.974;2023-04-24T00:58:32;1.25;;;1.15;;
78581;SDS011;67878;46.242;5.974;2023-04-24T01:00:58;1.40;;;1.30;;
78581;SDS011;67878;46.242;5.974;2023-04-24T01:03:25;1.10;;;1.00;;
78581;SDS011;67878;46.242;5.974;2023-04-24T01:05:53;1.58;;;1.00;;
78581;SDS011;67878;46.242;5.974;2023-04-24T01:08:20;1.50;;;1.30;;
78581;SDS011;67878;46.242;5.974;2023-04-24T01:10:46;2.50;;;1.10;;
78581;SDS011;67878;46.242;5.974;2023-04-24T01:13:13;1.10;;;0.95;;
78581;SDS011;67878;46.242;5.974;2023-04-24T01:15:39;1.50;;;1.20;;
78581;SDS011;67878;46.242;5.974;2023-04-24T01:18:04;1.20;;;1.10;;
78581;SDS011;67878;46.242;5.974;2023-04-24T01:20:31;1.30;;;1.00;;
78581;SDS011;67878;46.242;5.974;2023-04-24T01:22:56;1.80;;;1.10;;
78581;SDS011;67878;46.242;5.974;2023-04-24T01:25:22;1.20;;;0.85;;
78581;SDS011;67878;46.242;5.974;2023-04-24T01:27:48;1.10;;;1.00;;
78581;SDS011;67878;46.242;5.974;2023-04-24T01:30:14;1.35;;;1.23;;
78581;SDS011;67878;46.242;5.974;2023-04-24T01:32:40;1.67;;;1.00;;
78581;SDS011;67878;46.242;5.974;2023-04-24T01:35:09;1.48;;;1.10;;
78581;SDS011;67878;46.242;5.974;2023-04-24T01:37:35;1.52;;;1.20;;
78581;SDS011;67878;46.242;5.974;2023-04-24T01:40:03;1.20;;;0.98;;
78581;SDS011;67878;46.242;5.974;2023-04-24T01:42:30;1.27;;;1.17;;
78581;SDS011;67878;46.242;5.974;2023-04-24T01:44:56;1.30;;;1.00;;
78581;SDS011;67878;46.242;5.974;2023-04-24T01:47:22;1.35;;;1.15;;
78581;SDS011;67878;46.242;5.974;2023-04-24T01:49:53;1.10;;;1.00;;
78581;SDS011;67878;46.242;5.974;2023-04-24T01:52:21;1.48;;;0.93;;
78581;SDS011;67878;46.242;5.974;2023-04-24T01:54:48;1.55;;;0.95;;
78581;SDS011;67878;46.242;5.974;2023-04-24T01:57:14;1.70;;;1.23;;
78581;SDS011;67878;46.242;5.974;2023-04-24T01:59:39;2.30;;;1.10;;
78581;SDS011;67878;46.242;5.974;2023-04-24T02:02:05;1.10;;;1.00;;
78581;SDS011;67878;46.242;5.974;2023-04-24T02:04:31;1.30;;;1.10;;
78581;SDS011;67878;46.242;5.974;2023-04-24T02:06:56;1.00;;;0.90;;
78581;SDS011;67878;46.242;5.974;2023-04-24T02:09:22;1.50;;;1.10;;
78581;SDS011;67878;46.242;5.974;2023-04-24T02:11:48;1.17;;;0.90;;
78581;SDS011;67878;46.242;5.974;2023-04-24T02:14:13;0.80;;;0.70;;
78581;SDS011;67878;46.242;5.974;2023-04-24T02:16:39;0.98;;;0.85;;
78581;SDS011;67878;46.242;5.974;2023-04-24T02:19:04;1.10;;;0.90;;
78581;SDS011;67878;46.242;5.974;2023-04-24T02:21:30;1.90;;;0.98;;
78581;SDS011;67878;46.242;5.974;2023-04-24T02:23:56;1.13;;;0.93;;
78581;SDS011;67878;46.242;5.974;2023-04-24T02:26:22;1.10;;;0.98;;
78581;SDS011;67878;46.242;5.974;2023-04-24T02:28:47;2.15;;;0.82;;
78581;SDS011;67878;46.242;5.974;2023-04-24T02:31:13;0.88;;;0.80;;
78581;SDS011;67878;46.242;5.974;2023-04-24T02:33:39;1.02;;;0.90;;
78581;SDS011;67878;46.242;5.974;2023-04-24T02:36:04;0.70;;;0.70;;
78581;SDS011;67878;46.242;5.974;2023-04-24T02:38:29;1.02;;;0.90;;
78581;SDS011;67878;46.242;5.974;2023-04-24T02:40:55;1.42;;;0.93;;
78581;SDS011;67878;46.242;5.974;2023-04-24T02:43:20;1.00;;;0.80;;
78581;SDS011;67878;46.242;5.974;2023-04-24T02:45:46;1.30;;;0.80;;
78581;SDS011;67878;46.242;5.974;2023-04-24T02:48:11;0.90;;;0.80;;
78581;SDS011;67878;46.242;5.974;2023-04-24T02:50:37;1.00;;;0.90;;
78581;SDS011;67878;46.242;5.974;2023-04-24T02:53:02;1.10;;;0.90;;
78581;SDS011;67878;46.242;5.974;2023-04-24T02:55:28;1.70;;;0.90;;
78581;SDS011;67878;46.242;5.974;2023-04-24T02:57:54;1.33;;;0.98;;
78581;SDS011;67878;46.242;5.974;2023-04-24T03:00:19;1.77;;;0.93;;
78581;SDS011;67878;46.242;5.974;2023-04-24T03:02:45;1.45;;;1.05;;
78581;SDS011;67878;46.242;5.974;2023-04-24T03:05:11;1.08;;;0.98;;
78581;SDS011;67878;46.242;5.974;2023-04-24T03:07:37;0.80;;;0.77;;
78581;SDS011;67878;46.242;5.974;2023-04-24T03:10:03;1.23;;;1.13;;
78581;SDS011;67878;46.242;5.974;2023-04-24T03:12:30;1.48;;;0.80;;
78581;SDS011;67878;46.242;5.974;2023-04-24T03:14:56;1.20;;;0.80;;
78581;SDS011;67878;46.242;5.974;2023-04-24T03:17:22;1.10;;;0.80;;
78581;SDS011;67878;46.242;5.974;2023-04-24T03:19:48;0.98;;;0.85;;
78581;SDS011;67878;46.242;5.974;2023-04-24T03:22:13;1.50;;;1.05;;
78581;SDS011;67878;46.242;5.974;2023-04-24T03:24:38;0.80;;;0.80;;
78581;SDS011;67878;46.242;5.974;2023-04-24T03:27:05;0.98;;;0.80;;
78581;SDS011;67878;46.242;5.974;2023-04-24T03:29:30;1.00;;;0.90;;
78581;SDS011;67878;46.242;5.974;2023-04-24T03:31:56;0.73;;;0.70;;
78581;SDS011;67878;46.242;5.974;2023-04-24T03:34:22;1.20;;;0.82;;
78581;SDS011;67878;46.242;5.974;2023-04-24T03:36:47;1.35;;;0.90;;
78581;SDS011;67878;46.242;5.974;2023-04-24T03:39:13;1.05;;;0.80;;
78581;SDS011;67878;46.242;5.974;2023-04-24T03:41:38;2.22;;;0.90;;
78581;SDS011;67878;46.242;5.974;2023-04-24T03:44:05;1.45;;;0.75;;
78581;SDS011;67878;46.242;5.974;2023-04-24T03:46:30;1.25;;;0.90;;
78581;SDS011;67878;46.242;5.974;2023-04-24T03:48:55;1.48;;;0.80;;
78581;SDS011;67878;46.242;5.974;2023-04-24T03:51:21;1.85;;;0.85;;
78581;SDS011;67878;46.242;5.974;2023-04-24T03:53:47;1.50;;;0.95;;
78581;SDS011;67878;46.242;5.974;2023-04-24T03:56:14;1.05;;;0.95;;
78581;SDS011;67878;46.242;5.974;2023-04-24T03:58:41;0.90;;;0.80;;
78581;SDS011;67878;46.242;5.974;2023-04-24T04:01:10;1.27;;;0.82;;
78581;SDS011;67878;46.242;5.974;2023-04-24T04:03:38;1.00;;;0.80;;
78581;SDS011;67878;46.242;5.974;2023-04-24T04:06:10;1.08;;;0.90;;
78581;SDS011;67878;46.242;5.974;2023-04-24T04:08:44;1.10;;;1.00;;
78581;SDS011;67878;46.242;5.974;2023-04-24T04:11:12;2.05;;;0.70;;
78581;SDS011;67878;46.242;5.974;2023-04-24T04:13:38;1.17;;;0.85;;
78581;SDS011;67878;46.242;5.974;2023-04-24T04:16:05;1.05;;;0.73;;
78581;SDS011;67878;46.242;5.974;2023-04-24T04:18:39;1.05;;;0.90;;
78581;SDS011;67878;46.242;5.974;2023-04-24T04:21:09;1.27;;;0.80;;
78581;SDS011;67878;46.242;5.974;2023-04-24T04:23:38;0.98;;;0.80;;
78581;SDS011;67878;46.242;5.974;2023-04-24T04:26:11;1.75;;;0.90;;
78581;SDS011;67878;46.242;5.974;2023-04-24T04:28:40;1.20;;;0.90;;
78581;SDS011;67878;46.242;5.974;2023-04-24T04:31:08;0.93;;;0.80;;
78581;SDS011;67878;46.242;5.974;2023-04-24T04:33:38;1.10;;;0.70;;
78581;SDS011;67878;46.242;5.974;2023-04-24T04:36:05;0.90;;;0.70;;
78581;SDS011;67878;46.242;5.974;2023-04-24T04:38:35;1.00;;;0.90;;
78581;SDS011;67878;46.242;5.974;2023-04-24T04:41:07;0.88;;;0.80;;
78581;SDS011;67878;46.242;5.974;2023-04-24T04:43:38;1.30;;;0.90;;
78581;SDS011;67878;46.242;5.974;2023-04-24T04:46:04;1.45;;;0.80;;
78581;SDS011;67878;46.242;5.974;2023-04-24T04:48:30;1.45;;;0.90;;
78581;SDS011;67878;46.242;5.974;2023-04-24T04:50:56;1.70;;;0.80;;
78581;SDS011;67878;46.242;5.974;2023-04-24T04:53:22;1.00;;;0.77;;
78581;SDS011;67878;46.242;5.974;2023-04-24T04:55:49;1.10;;;0.80;;
78581;SDS011;67878;46.242;5.974;2023-04-24T04:58:18;1.30;;;0.80;;
78581;SDS011;67878;46.242;5.974;2023-04-24T05:00:43;1.00;;;0.88;;
78581;SDS011;67878;46.242;5.974;2023-04-24T05:03:09;0.90;;;0.90;;
78581;SDS011;67878;46.242;5.974;2023-04-24T05:05:34;1.35;;;0.80;;
78581;SDS011;67878;46.242;5.974;2023-04-24T05:08:00;0.98;;;0.88;;
78581;SDS011;67878;46.242;5.974;2023-04-24T05:10:26;3.40;;;0.85;;
78581;SDS011;67878;46.242;5.974;2023-04-24T05:12:57;1.00;;;0.80;;
78581;SDS011;67878;46.242;5.974;2023-04-24T05:15:26;0.85;;;0.80;;
78581;SDS011;67878;46.242;5.974;2023-04-24T05:17:55;0.95;;;0.80;;
78581;SDS011;67878;46.242;5.974;2023-04-24T05:20:24;0.98;;;0.80;;
78581;SDS011;67878;46.242;5.974;2023-04-24T05:22:54;0.70;;;0.70;;
78581;SDS011;67878;46.242;5.974;2023-04-24T05:25:24;1.00;;;0.90;;
78581;SDS011;67878;46.242;5.974;2023-04-24T05:27:53;0.90;;;0.80;;
78581;SDS011;67878;46.242;5.974;2023-04-24T05:30:21;1.10;;;0.90;;
78581;SDS011;67878;46.242;5.974;2023-04-24T05:32:47;1.05;;;0.70;;
78581;SDS011;67878;46.242;5.974;2023-04-24T05:35:13;1.00;;;0.80;;
78581;SDS011;67878;46.242;5.974;2023-04-24T05:37:38;1.27;;;0.70;;
78581;SDS011;67878;46.242;5.974;2023-04-24T05:40:04;1.58;;;0.90;;
78581;SDS011;67878;46.242;5.974;2023-04-24T05:42:31;2.13;;;0.80;;
78581;SDS011;67878;46.242;5.974;2023-04-24T05:44:57;1.13;;;0.82;;
78581;SDS011;67878;46.242;5.974;2023-04-24T05:47:23;0.95;;;0.70;;
78581;SDS011;67878;46.242;5.974;2023-04-24T05:49:48;1.00;;;0.73;;
78581;SDS011;67878;46.242;5.974;2023-04-24T05:52:14;1.27;;;0.73;;
78581;SDS011;67878;46.242;5.974;2023-04-24T05:54:39;1.25;;;0.70;;
78581;SDS011;67878;46.242;5.974;2023-04-24T05:57:05;1.00;;;0.77;;
78581;SDS011;67878;46.242;5.974;2023-04-24T05:59:36;1.20;;;0.77;;
78581;SDS011;67878;46.242;5.974;2023-04-24T06:02:03;0.82;;;0.70;;
78581;SDS011;67878;46.242;5.974;2023-04-24T06:04:29;4.40;;;0.70;;
78581;SDS011;67878;46.242;5.974;2023-04-24T06:06:54;0.75;;;0.70;;
78581;SDS011;67878;46.242;5.974;2023-04-24T06:09:23;1.75;;;0.80;;
78581;SDS011;67878;46.242;5.974;2023-04-24T06:11:49;1.10;;;0.70;;
78581;SDS011;67878;46.242;5.974;2023-04-24T06:14:19;1.13;;;0.82;;
78581;SDS011;67878;46.242;5.974;2023-04-24T06:16:48;4.07;;;2.53;;
78581;SDS011;67878;46.242;5.974;2023-04-24T06:19:15;3.78;;;1.52;;
78581;SDS011;67878;46.242;5.974;2023-04-24T06:21:43;3.88;;;1.70;;
78581;SDS011;67878;46.242;5.974;2023-04-24T06:24:15;12.98;;;1.48;;
78581;SDS011;67878;46.242;5.974;2023-04-24T06:26:43;6.38;;;1.70;;
78581;SDS011;67878;46.242;5.974;2023-04-24T06:29:15;2.53;;;1.30;;
78581;SDS011;67878;46.242;5.974;2023-04-24T06:31:45;2.60;;;1.50;;
78581;SDS011;67878;46.242;5.974;2023-04-24T06:34:16;1.60;;;1.30;;
78581;SDS011;67878;46.242;5.974;2023-04-24T06:36:46;3.47;;;1.30;;
78581;SDS011;67878;46.242;5.974;2023-04-24T06:39:16;2.97;;;1.30;;
78581;SDS011;67878;46.242;5.974;2023-04-24T06:41:45;1.77;;;1.42;;
78581;SDS011;67878;46.242;5.974;2023-04-24T06:44:13;3.00;;;1.70;;
78581;SDS011;67878;46.242;5.974;2023-04-24T06:46:43;3.10;;;1.50;;
78581;SDS011;67878;46.242;5.974;2023-04-24T06:49:09;4.95;;;1.60;;
78581;SDS011;67878;46.242;5.974;2023-04-24T06:51:34;2.08;;;1.42;;
78581;SDS011;67878;46.242;5.974;2023-04-24T06:54:04;2.20;;;1.73;;
78581;SDS011;67878;46.242;5.974;2023-04-24T06:56:30;3.15;;;1.80;;
78581;SDS011;67878;46.242;5.974;2023-04-24T06:58:56;2.30;;;2.10;;
78581;SDS011;67878;46.242;5.974;2023-04-24T07:01:21;4.47;;;1.95;;
78581;SDS011;67878;46.242;5.974;2023-04-24T07:03:47;3.00;;;1.70;;
78581;SDS011;67878;46.242;5.974;2023-04-24T07:06:16;2.03;;;1.45;;
78581;SDS011;67878;46.242;5.974;2023-04-24T07:08:43;5.80;;;2.25;;
78581;SDS011;67878;46.242;5.974;2023-04-24T07:11:10;3.22;;;1.83;;
78581;SDS011;67878;46.242;5.974;2023-04-24T07:13:38;3.35;;;2.10;;
78581;SDS011;67878;46.242;5.974;2023-04-24T07:16:08;2.03;;;1.60;;
78581;SDS011;67878;46.242;5.974;2023-04-24T07:18:45;3.67;;;1.90;;
78581;SDS011;67878;46.242;5.974;2023-04-24T07:21:14;3.05;;;1.70;;
78581;SDS011;67878;46.242;5.974;2023-04-24T07:23:45;2.75;;;1.40;;
78581;SDS011;67878;46.242;5.974;2023-04-24T07:26:13;2.35;;;1.60;;
78581;SDS011;67878;46.242;5.974;2023-04-24T07:28:42;4.53;;;1.95;;
78581;SDS011;67878;46.242;5.974;2023-04-24T07:31:12;3.53;;;1.98;;
78581;SDS011;67878;46.242;5.974;2023-04-24T07:33:40;2.08;;;1.88;;
78581;SDS011;67878;46.242;5.974;2023-04-24T07:36:06;2.53;;;1.60;;
78581;SDS011;67878;46.242;5.974;2023-04-24T07:38:44;2.83;;;1.52;;
78581;SDS011;67878;46.242;5.974;2023-04-24T07:41:13;2.50;;;2.00;;
78581;SDS011;67878;46.242;5.974;2023-04-24T07:43:41;2.45;;;1.70;;
78581;SDS011;67878;46.242;5.974;2023-04-24T07:46:13;3.28;;;2.00;;
78581;SDS011;67878;46.242;5.974;2023-04-24T07:48:45;3.25;;;1.80;;
78581;SDS011;67878;46.242;5.974;2023-04-24T07:51:14;5.88;;;2.13;;
78581;SDS011;67878;46.242;5.974;2023-04-24T07:53:41;3.78;;;2.30;;
78581;SDS011;67878;46.242;5.974;2023-04-24T07:56:17;4.15;;;2.60;;
78581;SDS011;67878;46.242;5.974;2023-04-24T07:58:43;2.08;;;1.80;;
78581;SDS011;67878;46.242;5.974;2023-04-24T08:01:08;3.13;;;2.40;;
78581;SDS011;67878;46.242;5.974;2023-04-24T08:03:34;3.10;;;2.17;;
78581;SDS011;67878;46.242;5.974;2023-04-24T08:05:59;3.72;;;2.15;;
78581;SDS011;67878;46.242;5.974;2023-04-24T08:08:25;2.30;;;1.90;;
78581;SDS011;67878;46.242;5.974;2023-04-24T08:10:50;3.55;;;2.17;;
78581;SDS011;67878;46.242;5.974;2023-04-24T08:13:15;4.20;;;2.35;;
78581;SDS011;67878;46.242;5.974;2023-04-24T08:15:41;2.50;;;2.13;;
78581;SDS011;67878;46.242;5.974;2023-04-24T08:18:06;3.15;;;2.30;;
78581;SDS011;67878;46.242;5.974;2023-04-24T08:20:32;2.38;;;1.92;;
78581;SDS011;67878;46.242;5.974;2023-04-24T08:22:57;3.10;;;2.10;;
78581;SDS011;67878;46.242;5.974;2023-04-24T08:25:23;3.88;;;2.35;;
78581;SDS011;67878;46.242;5.974;2023-04-24T08:27:52;3.90;;;1.90;;
78581;SDS011;67878;46.242;5.974;2023-04-24T08:30:18;4.25;;;1.90;;
78581;SDS011;67878;46.242;5.974;2023-04-24T08:32:43;4.70;;;2.03;;
78581;SDS011;67878;46.242;5.974;2023-04-24T08:35:09;3.70;;;1.98;;
78581;SDS011;67878;46.242;5.974;2023-04-24T08:37:34;2.75;;;2.00;;
78581;SDS011;67878;46.242;5.974;2023-04-24T08:40:00;2.47;;;2.08;;
78581;SDS011;67878;46.242;5.974;2023-04-24T08:42:27;2.90;;;1.77;;
78581;SDS011;67878;46.242;5.974;2023-04-24T08:44:55;2.60;;;1.45;;
78581;SDS011;67878;46.242;5.974;2023-04-24T08:47:28;4.85;;;2.13;;
78581;SDS011;67878;46.242;5.974;2023-04-24T08:49:56;3.95;;;1.98;;
78581;SDS011;67878;46.242;5.974;2023-04-24T08:52:21;5.07;;;1.75;;
78581;SDS011;67878;46.242;5.974;2023-04-24T08:54:47;3.42;;;1.77;;
78581;SDS011;67878;46.242;5.974;2023-04-24T08:57:13;4.35;;;3.67;;
78581;SDS011;67878;46.242;5.974;2023-04-24T08:59:39;5.82;;;3.10;;
78581;SDS011;67878;46.242;5.974;2023-04-24T09:02:05;4.65;;;3.13;;
78581;SDS011;67878;46.242;5.974;2023-04-24T09:04:31;3.70;;;2.70;;
78581;SDS011;67878;46.242;5.974;2023-04-24T09:06:58;4.15;;;2.70;;
78581;SDS011;67878;46.242;5.974;2023-04-24T09:09:24;3.50;;;2.70;;
78581;SDS011;67878;46.242;5.974;2023-04-24T09:11:50;4.40;;;2.35;;
78581;SDS011;67878;46.242;5.974;2023-04-24T09:14:18;3.42;;;2.47;;
78581;SDS011;67878;46.242;5.974;2023-04-24T09:16:44;2.47;;;2.05;;
78581;SDS011;67878;46.242;5.974;2023-04-24T09:19:10;3.13;;;2.40;;
78581;SDS011;67878;46.242;5.974;2023-04-24T09:21:35;10.20;;;2.30;;
78581;SDS011;67878;46.242;5.974;2023-04-24T09:24:02;2.20;;;2.00;;
78581;SDS011;67878;46.242;5.974;2023-04-24T09:26:29;2.70;;;2.15;;
78581;SDS011;67878;46.242;5.974;2023-04-24T09:28:56;3.97;;;2.20;;
78581;SDS011;67878;46.242;5.974;2023-04-24T09:31:22;2.65;;;1.90;;
78581;SDS011;67878;46.242;5.974;2023-04-24T09:33:54;1.80;;;1.70;;
78581;SDS011;67878;46.242;5.974;2023-04-24T09:36:34;2.13;;;1.60;;
78581;SDS011;67878;46.242;5.974;2023-04-24T09:39:04;3.15;;;1.75;;
78581;SDS011;67878;46.242;5.974;2023-04-24T09:41:43;3.70;;;1.83;;
78581;SDS011;67878;46.242;5.974;2023-04-24T09:44:17;1.52;;;1.42;;
78581;SDS011;67878;46.242;5.974;2023-04-24T09:47:04;1.85;;;1.42;;
78581;SDS011;67878;46.242;5.974;2023-04-24T09:49:34;3.28;;;1.50;;
78581;SDS011;67878;46.242;5.974;2023-04-24T09:52:08;2.65;;;1.50;;
78581;SDS011;67878;46.242;5.974;2023-04-24T09:54:34;2.15;;;1.42;;
78581;SDS011;67878;46.242;5.974;2023-04-24T09:57:01;3.38;;;1.52;;
78581;SDS011;67878;46.242;5.974;2023-04-24T09:59:27;3.17;;;1.50;;
78581;SDS011;67878;46.242;5.974;2023-04-24T10:01:53;1.90;;;1.40;;
78581;SDS011;67878;46.242;5.974;2023-04-24T10:04:20;2.33;;;1.45;;
78581;SDS011;67878;46.242;5.974;2023-04-24T10:06:48;2.55;;;1.52;;
78581;SDS011;67878;46.242;5.974;2023-04-24T10:09:15;2.42;;;1.27;;
78581;SDS011;67878;46.242;5.974;2023-04-24T10:11:43;2.00;;;1.60;;
78581;SDS011;67878;46.242;5.974;2023-04-24T10:14:14;4.15;;;1.95;;
78581;SDS011;67878;46.242;5.974;2023-04-24T10:16:41;3.25;;;2.05;;
78581;SDS011;67878;46.242;5.974;2023-04-24T10:19:13;2.55;;;1.85;;
78581;SDS011;67878;46.242;5.974;2023-04-24T10:21:41;2.70;;;1.95;;
78581;SDS011;67878;46.242;5.974;2023-04-24T10:24:12;2.20;;;1.73;;
78581;SDS011;67878;46.242;5.974;2023-04-24T10:26:39;2.72;;;1.92;;
78581;SDS011;67878;46.242;5.974;2023-04-24T10:29:05;2.08;;;1.80;;
78581;SDS011;67878;46.242;5.974;2023-04-24T10:31:36;2.53;;;1.95;;
78581;SDS011;67878;46.242;5.974;2023-04-24T10:34:02;3.50;;;1.80;;
78581;SDS011;67878;46.242;5.974;2023-04-24T10:36:28;2.78;;;1.98;;
78581;SDS011;67878;46.242;5.974;2023-04-24T10:38:57;1.80;;;1.60;;
78581;SDS011;67878;46.242;5.974;2023-04-24T10:41:25;4.10;;;1.70;;
78581;SDS011;67878;46.242;5.974;2023-04-24T10:44:07;2.67;;;1.83;;
78581;SDS011;67878;46.242;5.974;2023-04-24T10:46:35;2.35;;;2.00;;
78581;SDS011;67878;46.242;5.974;2023-04-24T10:49:03;2.88;;;1.70;;
78581;SDS011;67878;46.242;5.974;2023-04-24T10:52:05;2.50;;;1.77;;
78581;SDS011;67878;46.242;5.974;2023-04-24T10:54:36;2.75;;;1.63;;
78581;SDS011;67878;46.242;5.974;2023-04-24T10:59:48;2.25;;;1.85;;
78581;SDS011;67878;46.242;5.974;2023-04-24T11:04:41;3.15;;;1.80;;
78581;SDS011;67878;46.242;5.974;2023-04-24T11:07:08;3.80;;;1.95;;
78581;SDS011;67878;46.242;5.974;2023-04-24T11:09:35;3.13;;;1.70;;
78581;SDS011;67878;46.242;5.974;2023-04-24T11:12:05;1.70;;;1.60;;
78581;SDS011;67878;46.242;5.974;2023-04-24T11:17:29;2.13;;;1.80;;
78581;SDS011;67878;46.242;5.974;2023-04-24T11:20:07;2.35;;;1.40;;
78581;SDS011;67878;46.242;5.974;2023-04-24T11:22:44;3.63;;;2.33;;
78581;SDS011;67878;46.242;5.974;2023-04-24T11:25:12;3.53;;;2.50;;
78581;SDS011;67878;46.242;5.974;2023-04-24T11:27:42;4.13;;;2.80;;
78581;SDS011;67878;46.242;5.974;2023-04-24T11:30:17;4.57;;;2.70;;
78581;SDS011;67878;46.242;5.974;2023-04-24T11:32:47;5.30;;;2.75;;
78581;SDS011;67878;46.242;5.974;2023-04-24T11:35:20;4.47;;;2.38;;
78581;SDS011;67878;46.242;5.974;2023-04-24T11:37:53;2.78;;;2.30;;
78581;SDS011;67878;46.242;5.974;2023-04-24T11:40:20;2.63;;;2.00;;
78581;SDS011;67878;46.242;5.974;2023-04-24T11:45:23;4.78;;;2.85;;
78581;SDS011;67878;46.242;5.974;2023-04-24T11:47:56;4.13;;;2.83;;
78581;SDS011;67878;46.242;5.974;2023-04-24T11:50:23;3.60;;;2.47;;
78581;SDS011;67878;46.242;5.974;2023-04-24T11:52:50;2.95;;;2.67;;
78581;SDS011;67878;46.242;5.974;2023-04-24T11:57:45;4.38;;;2.42;;
78581;SDS011;67878;46.242;5.974;2023-04-24T12:00:15;2.72;;;2.28;;
78581;SDS011;67878;46.242;5.974;2023-04-24T12:02:42;2.80;;;2.50;;
78581;SDS011;67878;46.242;5.974;2023-04-24T12:05:07;3.28;;;2.17;;
78581;SDS011;67878;46.242;5.974;2023-04-24T12:07:40;10.20;;;6.43;;
78581;SDS011;67878;46.242;5.974;2023-04-24T12:10:07;4.82;;;3.75;;
78581;SDS011;67878;46.242;5.974;2023-04-24T12:12:34;5.63;;;3.53;;
78581;SDS011;67878;46.242;5.974;2023-04-24T12:15:00;4.22;;;3.65;;
78581;SDS011;67878;46.242;5.974;2023-04-24T12:17:30;4.30;;;3.25;;
78581;SDS011;67878;46.242;5.974;2023-04-24T12:19:58;3.67;;;2.85;;
78581;SDS011;67878;46.242;5.974;2023-04-24T12:25:18;3.35;;;2.90;;
78581;SDS011;67878;46.242;5.974;2023-04-24T12:27:55;3.33;;;3.00;;
78581;SDS011;67878;46.242;5.974;2023-04-24T12:30:49;3.70;;;2.97;;
78581;SDS011;67878;46.242;5.974;2023-04-24T12:33:19;4.30;;;3.00;;
78581;SDS011;67878;46.242;5.974;2023-04-24T12:35:45;4.07;;;2.90;;
78581;SDS011;67878;46.242;5.974;2023-04-24T12:38:14;5.05;;;2.90;;
78581;SDS011;67878;46.242;5.974;2023-04-24T12:40:41;3.42;;;2.92;;
78581;SDS011;67878;46.242;5.974;2023-04-24T12:43:17;2.85;;;2.63;;
78581;SDS011;67878;46.242;5.974;2023-04-24T12:45:46;3.10;;;2.70;;
78581;SDS011;67878;46.242;5.974;2023-04-24T12:48:15;4.68;;;2.92;;
78581;SDS011;67878;46.242;5.974;2023-04-24T12:50:41;3.28;;;2.58;;
78581;SDS011;67878;46.242;5.974;2023-04-24T12:53:07;3.08;;;2.72;;
78581;SDS011;67878;46.242;5.974;2023-04-24T12:55:33;2.95;;;2.55;;
78581;SDS011;67878;46.242;5.974;2023-04-24T12:57:59;3.55;;;2.80;;
78581;SDS011;67878;46.242;5.974;2023-04-24T13:00:26;2.80;;;2.50;;
78581;SDS011;67878;46.242;5.974;2023-04-24T13:02:55;3.28;;;2.50;;
78581;SDS011;67878;46.242;5.974;2023-04-24T13:05:23;3.13;;;2.65;;
78581;SDS011;67878;46.242;5.974;2023-04-24T13:07:49;3.20;;;2.58;;
78581;SDS011;67878;46.242;5.974;2023-04-24T13:10:18;2.88;;;2.35;;
78581;SDS011;67878;46.242;5.974;2023-04-24T13:12:47;3.65;;;2.70;;
78581;SDS011;67878;46.242;5.974;2023-04-24T13:15:13;2.90;;;2.60;;
78581;SDS011;67878;46.242;5.974;2023-04-24T13:17:41;2.80;;;2.53;;
78581;SDS011;67878;46.242;5.974;2023-04-24T13:20:06;3.78;;;2.20;;
78581;SDS011;67878;46.242;5.974;2023-04-24T13:22:34;3.30;;;2.30;;
78581;SDS011;67878;46.242;5.974;2023-04-24T13:25:00;2.90;;;2.60;;
78581;SDS011;67878;46.242;5.974;2023-04-24T13:27:27;2.67;;;2.20;;
78581;SDS011;67878;46.242;5.974;2023-04-24T13:30:03;2.97;;;2.30;;
78581;SDS011;67878;46.242;5.974;2023-04-24T13:32:32;2.50;;;2.30;;
78581;SDS011;67878;46.242;5.974;2023-04-24T13:34:58;3.30;;;2.25;;
78581;SDS011;67878;46.242;5.974;2023-04-24T13:37:30;2.33;;;2.13;;
78581;SDS011;67878;46.242;5.974;2023-04-24T13:39:59;2.05;;;1.85;;
78581;SDS011;67878;46.242;5.974;2023-04-24T13:42:25;2.10;;;1.90;;
78581;SDS011;67878;46.242;5.974;2023-04-24T13:44:52;2.58;;;1.83;;
78581;SDS011;67878;46.242;5.974;2023-04-24T13:47:26;3.10;;;1.98;;
78581;SDS011;67878;46.242;5.974;2023-04-24T13:49:56;4.03;;;1.90;;
78581;SDS011;67878;46.242;5.974;2023-04-24T13:52:22;1.92;;;1.65;;
78581;SDS011;67878;46.242;5.974;2023-04-24T13:54:48;1.80;;;1.63;;
78581;SDS011;67878;46.242;5.974;2023-04-24T13:57:16;3.03;;;1.75;;
78581;SDS011;67878;46.242;5.974;2023-04-24T13:59:42;1.85;;;1.58;;
78581;SDS011;67878;46.242;5.974;2023-04-24T14:02:08;2.33;;;1.60;;
78581;SDS011;67878;46.242;5.974;2023-04-24T14:04:33;2.83;;;1.80;;
78581;SDS011;67878;46.242;5.974;2023-04-24T14:06:59;3.85;;;2.83;;
78581;SDS011;67878;46.242;5.974;2023-04-24T14:09:27;4.68;;;3.78;;
78581;SDS011;67878;46.242;5.974;2023-04-24T14:11:54;3.75;;;3.15;;
78581;SDS011;67878;46.242;5.974;2023-04-24T14:14:19;3.78;;;2.55;;
78581;SDS011;67878;46.242;5.974;2023-04-24T14:16:45;3.50;;;2.70;;
78581;SDS011;67878;46.242;5.974;2023-04-24T14:19:10;2.88;;;2.53;;
78581;SDS011;67878;46.242;5.974;2023-04-24T14:21:36;4.85;;;2.58;;
78581;SDS011;67878;46.242;5.974;2023-04-24T14:24:01;2.92;;;2.50;;
78581;SDS011;67878;46.242;5.974;2023-04-24T14:26:27;3.85;;;2.80;;
78581;SDS011;67878;46.242;5.974;2023-04-24T14:28:53;2.97;;;2.65;;
78581;SDS011;67878;46.242;5.974;2023-04-24T14:31:18;3.28;;;2.40;;
78581;SDS011;67878;46.242;5.974;2023-04-24T14:33:44;3.17;;;2.42;;
78581;SDS011;67878;46.242;5.974;2023-04-24T14:36:11;2.85;;;2.50;;
78581;SDS011;67878;46.242;5.974;2023-04-24T14:38:37;3.25;;;2.53;;
78581;SDS011;67878;46.242;5.974;2023-04-24T14:41:06;3.85;;;2.47;;
78581;SDS011;67878;46.242;5.974;2023-04-24T14:43:34;3.70;;;2.22;;
78581;SDS011;67878;46.242;5.974;2023-04-24T14:46:00;3.95;;;2.80;;
78581;SDS011;67878;46.242;5.974;2023-04-24T14:48:26;2.70;;;2.50;;
78581;SDS011;67878;46.242;5.974;2023-04-24T14:50:51;3.10;;;2.70;;
78581;SDS011;67878;46.242;5.974;2023-04-24T14:53:17;2.60;;;2.40;;
78581;SDS011;67878;46.242;5.974;2023-04-24T14:55:43;3.70;;;2.70;;
78581;SDS011;67878;46.242;5.974;2023-04-24T14:58:09;2.80;;;2.15;;
78581;SDS011;67878;46.242;5.974;2023-04-24T15:00:35;2.58;;;2.28;;
78581;SDS011;67878;46.242;5.974;2023-04-24T15:03:00;3.40;;;2.30;;
78581;SDS011;67878;46.242;5.974;2023-04-24T15:05:26;2.53;;;2.33;;